Time;durP1;ratioP1;P1;durP2;ratioP2;P2;SDS_P1;SDS_P2;PMS_P1;PMS_P2;Temp;Humidity;BMP_temperature;BMP_pressure;BME280_temperature;BME280_humidity;BME280_pressure;Samples;Min_cycle;Max_cycle;Signal;HPM_P1;HPM_P2
2021/09/14 04:43:13;;;;;;;13.07;8.02;;;;;;;10.23;91.29;94961.63;6077113;23;21004;-85
2021/09/14 05:01:09;;;;;;;9.73;7.03;;;;;;;17.08;61.73;94948.13;5677378;23;20424;-87
2021/09/14 05:03:34;;;;;;;8.57;6.65;;;;;;;17.71;59.39;94950.75;4930382;29;20087;-86
2021/09/14 05:06:00;;;;;;;11.77;7.00;;;;;;;18.85;56.40;94953.59;4921833;29;20603;-86
2021/09/14 05:08:25;;;;;;;18.23;6.35;;;;;;;19.66;53.65;94953.88;4912624;29;20410;-85
2021/09/14 05:10:51;;;;;;;12.50;6.85;;;;;;;18.43;56.51;94957.91;4928294;29;20425;-86
2021/09/14 05:13:17;;;;;;;10.65;5.65;;;;;;;19.95;53.04;94962.72;4931703;29;20028;-85
2021/09/14 05:15:43;;;;;;;9.45;6.30;;;;;;;20.91;50.04;94951.63;4932037;29;20512;-84
2021/09/14 05:18:11;;;;;;;7.03;6.32;;;;;;;21.58;48.27;94949.94;4914841;29;20054;-84
2021/09/14 05:20:37;;;;;;;9.82;6.35;;;;;;;20.41;51.86;94952.22;4931358;29;20035;-84
2021/09/14 05:23:11;;;;;;;8.52;6.00;;;;;;;18.82;55.89;94956.66;4931028;29;20027;-85
2021/09/14 05:25:38;;;;;;;11.63;5.95;;;;;;;20.69;50.99;94951.44;4931032;29;20020;-83
2021/09/14 05:28:03;;;;;;;6.55;5.85;;;;;;;21.24;50.11;94949.13;4930993;29;20315;-84
2021/09/14 05:30:29;;;;;;;9.05;5.65;;;;;;;23.28;45.09;94951.75;4930918;29;20035;-83
2021/09/14 05:32:54;;;;;;;10.55;5.82;;;;;;;23.86;43.31;94953.63;4931633;29;20078;-83
2021/09/14 05:35:21;;;;;;;7.00;5.93;;;;;;;23.92;43.59;94947.34;4914265;29;20028;-83
2021/09/14 05:37:47;;;;;;;6.70;6.03;;;;;;;23.94;43.01;94953.97;4914165;29;20485;-84
2021/09/14 05:40:13;;;;;;;7.07;6.13;;;;;;;22.91;44.32;94947.13;4914722;29;20019;-85
2021/09/14 05:42:38;;;;;;;7.50;6.32;;;;;;;23.60;44.00;94952.59;4931156;29;20031;-83
2021/09/14 05:45:04;;;;;;;6.28;5.68;;;;;;;24.80;41.46;94941.22;4931966;29;20107;-84
2021/09/14 05:47:29;;;;;;;6.88;6.15;;;;;;;24.63;42.07;94946.72;4931126;29;20054;-84
2021/09/14 05:49:58;;;;;;;7.15;6.40;;;;;;;25.04;41.64;94949.56;4914704;29;20101;-84
2021/09/14 05:52:23;;;;;;;9.80;6.60;;;;;;;24.99;42.79;94958.31;4930955;29;20537;-83
2021/09/14 05:54:49;;;;;;;11.15;7.60;;;;;;;22.45;47.80;94958.13;4931300;29;20035;-83
2021/09/14 05:57:14;;;;;;;8.35;6.32;;;;;;;19.77;53.55;94963.63;4931536;29;20042;-85
2021/09/14 05:59:40;;;;;;;5.97;5.40;;;;;;;19.42;54.47;94968.00;4931047;29;20020;-82
2021/09/14 06:02:05;;;;;;;15.52;6.55;;;;;;;20.58;52.83;94964.66;4931212;29;20058;-82
2021/09/14 06:04:31;;;;;;;5.93;5.38;;;;;;;20.68;51.18;94960.38;4930717;29;20028;-81
2021/09/14 06:06:56;;;;;;;8.32;5.47;;;;;;;20.83;51.13;94959.91;4914132;29;20032;-81
2021/09/14 06:09:22;;;;;;;5.80;5.28;;;;;;;21.49;49.32;94962.72;4930576;29;20023;-81
2021/09/14 06:11:47;;;;;;;7.55;5.38;;;;;;;20.54;52.51;94966.94;4931480;29;20028;-81
2021/09/14 06:14:13;;;;;;;7.03;5.88;;;;;;;22.27;48.82;94966.34;4913715;29;20496;-81
2021/09/14 06:16:38;;;;;;;7.13;5.35;;;;;;;26.64;39.72;94966.66;4913983;29;20031;-83
2021/09/14 06:19:03;;;;;;;6.70;5.07;;;;;;;28.96;35.46;94960.78;4931235;29;20038;-81
2021/09/14 06:21:29;;;;;;;5.20;4.80;;;;;;;29.40;33.64;94966.66;4930608;29;20433;-81
2021/09/14 06:23:54;;;;;;;6.13;4.95;;;;;;;29.78;33.34;94975.44;4931291;29;20036;-81
2021/09/14 06:26:20;;;;;;;6.03;5.35;;;;;;;30.23;31.63;94969.41;4930445;29;20027;-81
2021/09/14 06:28:45;;;;;;;6.78;5.22;;;;;;;30.22;32.27;94975.03;4931682;29;20036;-81
2021/09/14 06:31:11;;;;;;;6.55;5.28;;;;;;;30.47;31.52;94971.94;4930103;29;20036;-80
2021/09/14 06:33:36;;;;;;;5.85;4.97;;;;;;;32.26;29.55;94976.78;4931422;29;20028;-81
2021/09/14 06:36:02;;;;;;;7.68;5.70;;;;;;;30.58;32.27;94975.22;4930692;29;20042;-79
2021/09/14 06:38:27;;;;;;;7.25;5.05;;;;;;;31.94;30.45;94979.69;4914017;29;20047;-80
2021/09/14 06:40:52;;;;;;;5.80;4.93;;;;;;;32.69;29.09;94979.72;4909081;29;20035;-80
2021/09/14 06:43:18;;;;;;;8.68;5.63;;;;;;;32.75;29.21;94984.66;4909052;29;20032;-80
2021/09/14 06:45:46;;;;;;;5.82;5.22;;;;;;;33.81;28.13;94980.88;4910954;29;20028;-81
2021/09/14 06:48:15;;;;;;;5.45;4.93;;;;;;;33.46;28.49;94982.69;4908612;29;20063;-81
2021/09/14 06:50:41;;;;;;;6.60;5.53;;;;;;;33.95;27.87;94978.78;4911406;29;20051;-80
2021/09/14 06:53:06;;;;;;;8.35;5.40;;;;;;;33.59;27.92;94984.44;4910506;29;20783;-80
2021/09/14 06:55:32;;;;;;;7.50;5.68;;;;;;;32.93;29.78;94984.72;4911926;29;20039;-80
2021/09/14 06:57:57;;;;;;;6.35;5.80;;;;;;;33.35;28.47;94986.78;4895105;29;20024;-82
2021/09/14 07:00:23;;;;;;;12.63;6.80;;;;;;;33.93;28.02;94983.72;4896691;29;20405;-80
2021/09/14 07:02:48;;;;;;;7.55;6.90;;;;;;;34.71;27.11;94984.44;4898621;29;20084;-80
2021/09/14 07:05:14;;;;;;;7.47;6.57;;;;;;;34.14;27.67;94981.97;4913342;29;20360;-79
2021/09/14 07:07:39;;;;;;;11.50;7.03;;;;;;;34.02;26.94;94983.69;4909465;29;20051;-81
2021/09/14 07:10:05;;;;;;;11.30;8.10;;;;;;;31.95;29.93;94986.66;4893547;29;20036;-80
2021/09/14 07:12:31;;;;;;;8.80;6.80;;;;;;;27.93;37.03;94990.53;4896658;29;20071;-80
2021/09/14 07:14:57;;;;;;;12.55;9.00;;;;;;;25.54;39.99;94986.84;4897809;29;20024;-80
2021/09/14 07:17:22;;;;;;;9.70;7.20;;;;;;;26.51;38.02;94987.69;4913883;29;20091;-80
2021/09/14 07:19:47;;;;;;;10.60;7.35;;;;;;;26.04;40.00;94987.97;4900057;29;20033;-80
2021/09/14 07:22:13;;;;;;;14.23;8.35;;;;;;;25.80;40.39;94990.34;4893786;29;20541;-79
2021/09/14 07:24:38;;;;;;;11.38;7.63;;;;;;;25.56;40.03;94994.53;4879621;29;20029;-80
2021/09/14 07:27:04;;;;;;;8.00;7.30;;;;;;;25.84;40.94;94990.63;4895148;29;20051;-80
2021/09/14 07:29:32;;;;;;;12.43;6.97;;;;;;;25.79;40.50;94985.28;4896508;29;20033;-79
2021/09/14 07:31:57;;;;;;;8.23;7.20;;;;;;;25.98;39.93;94989.00;4895497;29;20434;-79
2021/09/14 07:34:22;;;;;;;7.53;6.60;;;;;;;26.20;40.56;94992.22;4896028;29;20021;-83
2021/09/14 07:36:48;;;;;;;11.65;6.43;;;;;;;26.01;40.48;94996.44;4896526;29;20040;-80
2021/09/14 07:39:13;;;;;;;7.28;6.57;;;;;;;24.87;42.80;94983.44;4895207;29;20080;-80
2021/09/14 07:41:39;;;;;;;9.95;6.88;;;;;;;25.09;42.46;94992.00;4896176;29;20028;-80
2021/09/14 07:44:04;;;;;;;8.40;6.75;;;;;;;25.62;42.14;94996.94;4895232;29;20029;-80
2021/09/14 07:46:30;;;;;;;8.68;6.15;;;;;;;25.07;42.40;94994.13;4894665;29;20478;-81
2021/09/14 07:48:55;;;;;;;6.95;5.63;;;;;;;25.13;41.89;94990.44;4913039;29;20063;-81
2021/09/14 07:51:22;;;;;;;7.80;6.65;;;;;;;25.39;42.13;94999.25;4914824;29;20506;-81
2021/09/14 07:53:47;;;;;;;6.82;6.22;;;;;;;25.53;40.32;94998.53;4914350;29;20035;-81
2021/09/14 07:56:13;;;;;;;9.23;6.65;;;;;;;25.01;39.72;94993.28;4903865;29;20453;-80
2021/09/14 07:58:38;;;;;;;9.45;6.78;;;;;;;25.11;41.42;95000.47;4879092;29;20036;-80
2021/09/14 08:01:04;;;;;;;8.93;6.90;;;;;;;24.28;42.49;94996.03;4894577;29;20061;-85
2021/09/14 08:03:29;;;;;;;7.20;5.80;;;;;;;25.51;40.77;94998.00;4892940;29;20036;-81
2021/09/14 08:05:54;;;;;;;10.90;5.65;;;;;;;25.50;40.13;94990.28;4893877;29;20043;-82
2021/09/14 08:08:20;;;;;;;8.57;5.50;;;;;;;25.64;39.93;94989.53;4894028;29;20029;-82
2021/09/14 08:10:45;;;;;;;6.65;5.50;;;;;;;24.87;40.16;94997.50;4893226;29;20506;-85
2021/09/14 08:13:11;;;;;;;6.20;5.60;;;;;;;25.46;40.03;94989.22;4892534;29;20048;-83
2021/09/14 08:15:37;;;;;;;8.45;5.40;;;;;;;25.64;38.85;94992.19;4893379;29;20028;-81
2021/09/14 08:18:02;;;;;;;5.22;4.57;;;;;;;25.54;39.18;94996.66;4891712;29;20037;-80
2021/09/14 08:20:28;;;;;;;5.43;4.93;;;;;;;25.25;39.42;94993.66;4898420;29;20032;-80
2021/09/14 08:22:53;;;;;;;7.45;5.40;;;;;;;25.12;40.18;94984.31;4910708;29;20028;-79
2021/09/14 08:25:19;;;;;;;6.03;5.00;;;;;;;25.66;39.89;94983.94;4908783;29;20044;-81
2021/09/14 08:27:44;;;;;;;7.68;5.05;;;;;;;25.42;40.30;94980.97;4910452;29;20040;-80
2021/09/14 08:30:10;;;;;;;7.32;5.07;;;;;;;25.95;40.03;94984.22;4910516;29;20028;-81
2021/09/14 08:32:36;;;;;;;5.13;4.68;;;;;;;26.39;37.76;94976.53;4909168;29;20032;-81
2021/09/14 08:35:01;;;;;;;6.57;4.45;;;;;;;25.91;37.98;94981.31;4911428;29;20087;-78
2021/09/14 08:37:27;;;;;;;4.60;4.20;;;;;;;26.07;37.33;94976.81;4909144;29;20496;-80
2021/09/14 08:39:52;;;;;;;5.15;4.43;;;;;;;26.04;39.14;94974.69;4880759;29;20028;-81
2021/09/14 08:42:19;;;;;;;7.53;4.78;;;;;;;26.55;38.34;94972.78;4911839;29;20538;-81
2021/09/14 08:44:45;;;;;;;7.50;4.40;;;;;;;26.81;37.70;94966.34;4908882;29;20073;-82
2021/09/14 08:47:10;;;;;;;5.60;4.30;;;;;;;26.68;38.03;94962.38;4911529;29;20020;-81
2021/09/14 08:49:36;;;;;;;5.55;4.13;;;;;;;27.08;35.62;94952.69;4911692;29;20035;-85
2021/09/14 08:52:01;;;;;;;6.47;4.00;;;;;;;26.77;35.76;94946.66;4910031;29;20047;-83
2021/09/14 08:54:27;;;;;;;4.78;4.38;;;;;;;26.87;36.08;94954.66;4892033;29;20032;-85
2021/09/14 08:56:52;;;;;;;5.80;3.97;;;;;;;26.75;36.47;94953.34;4911121;29;20063;-84
2021/09/14 08:59:31;;;;;;;7.22;4.43;;;;;;;27.26;36.81;94944.06;4909357;29;20557;-80
2021/09/14 09:02:01;;;;;;;5.20;4.05;;;;;;;27.28;36.12;94946.47;4878971;29;20059;-79
2021/09/14 09:04:27;;;;;;;8.27;4.88;;;;;;;25.63;37.01;94942.81;4909014;29;20067;-82
2021/09/14 09:06:52;;;;;;;7.22;4.40;;;;;;;27.05;36.59;94947.91;4911882;29;20111;-82
2021/09/14 09:09:19;;;;;;;10.48;4.55;;;;;;;27.06;36.36;94949.50;4912088;29;20035;-82
2021/09/14 09:12:04;;;;;;;4.57;3.75;;;;;;;26.69;35.66;94948.03;4894649;29;20028;-81
2021/09/14 09:14:43;;;;;;;6.25;4.07;;;;;;;27.55;35.95;94946.88;4894682;29;20036;-84
2021/09/14 09:17:13;;;;;;;11.32;4.78;;;;;;;27.64;35.13;94947.88;4892737;29;20041;-82
2021/09/14 09:19:39;;;;;;;7.15;3.90;;;;;;;27.64;34.71;94943.34;4892367;29;20033;-82
2021/09/14 09:22:05;;;;;;;4.38;3.90;;;;;;;27.20;33.50;94937.97;4890743;29;20115;-79
2021/09/14 09:24:42;;;;;;;3.75;3.45;;;;;;;27.34;34.32;94935.50;4889891;29;20103;-83
2021/09/14 09:27:13;;;;;;;3.85;3.22;;;;;;;28.17;32.41;94938.13;4911411;29;20095;-82
2021/09/14 09:29:38;;;;;;;6.35;3.45;;;;;;;28.24;32.85;94935.94;4911293;29;20064;-82
2021/09/14 09:32:04;;;;;;;3.55;3.25;;;;;;;28.09;32.73;94928.88;4900706;29;20031;-82
2021/09/14 09:34:30;;;;;;;5.88;3.95;;;;;;;28.39;33.15;94932.31;4892658;29;20032;-82
2021/09/14 09:37:06;;;;;;;6.50;3.60;;;;;;;28.35;33.26;94921.44;4891235;29;20043;-82
2021/09/14 09:39:47;;;;;;;4.57;3.60;;;;;;;27.79;33.32;94925.63;4892520;29;20032;-81
2021/09/14 09:42:13;;;;;;;4.85;3.65;;;;;;;27.31;34.57;94922.75;4892510;29;20028;-81
2021/09/14 09:44:39;;;;;;;4.57;3.30;;;;;;;28.31;32.51;94925.75;4891873;29;20028;-84
2021/09/14 09:47:04;;;;;;;4.20;3.15;;;;;;;28.30;30.78;94916.16;4892698;29;20028;-85
2021/09/14 09:49:32;;;;;;;2.90;2.70;;;;;;;28.56;32.28;94920.13;4892761;29;20044;-81
2021/09/14 09:51:58;;;;;;;3.47;3.17;;;;;;;28.69;31.86;94902.69;4892349;29;20044;-83
2021/09/14 09:54:24;;;;;;;4.57;3.13;;;;;;;28.67;30.02;94912.84;4892465;29;20029;-84
2021/09/14 09:56:49;;;;;;;6.15;3.63;;;;;;;28.55;31.47;94907.06;4892260;29;20408;-83
2021/09/14 09:59:15;;;;;;;4.72;3.38;;;;;;;28.53;31.60;94904.72;4892770;29;20024;-83
2021/09/14 10:01:42;;;;;;;4.78;3.20;;;;;;;27.92;31.81;94901.81;4893412;29;20457;-85
2021/09/14 10:04:19;;;;;;;3.10;2.90;;;;;;;28.69;31.45;94898.16;4894328;29;20024;-81
2021/09/14 10:06:50;;;;;;;3.75;3.08;;;;;;;28.50;31.33;94897.28;4893387;29;20119;-83
2021/09/14 10:09:15;;;;;;;3.10;2.80;;;;;;;28.61;31.63;94888.06;4879053;29;20148;-83
2021/09/14 10:11:41;;;;;;;5.72;3.03;;;;;;;28.64;30.55;94890.16;4905056;29;20029;-84
2021/09/14 10:14:13;;;;;;;3.70;3.17;;;;;;;28.14;29.83;94888.06;4892180;29;20036;-85
2021/09/14 10:16:45;;;;;;;5.20;2.97;;;;;;;28.33;29.65;94880.13;4904153;29;20188;-85
2021/09/14 10:19:18;;;;;;;3.20;2.85;;;;;;;28.68;30.74;94883.22;4910885;29;20044;-84
2021/09/14 10:22:04;;;;;;;5.82;2.80;;;;;;;27.49;29.14;94882.19;4905769;29;20092;-83
2021/09/14 10:24:30;;;;;;;3.75;3.30;;;;;;;28.20;29.89;94878.94;4891424;29;20128;-82
2021/09/14 10:27:06;;;;;;;6.95;3.38;;;;;;;28.20;31.34;94874.41;4874836;29;20029;-83
2021/09/14 10:29:31;;;;;;;5.07;3.00;;;;;;;28.47;30.29;94873.84;4891028;29;20120;-83
2021/09/14 10:32:13;;;;;;;5.55;3.35;;;;;;;27.80;30.59;94874.78;4891972;29;20083;-82
2021/09/14 10:34:42;;;;;;;3.25;2.92;;;;;;;28.19;30.38;94872.81;4893378;29;20033;-81
2021/09/14 10:37:08;;;;;;;;;;;;;;;28.04;30.63;94870.28;4906372;29;20028;-81
2021/09/14 10:39:42;;;;;;;3.03;2.83;;;;;;;28.12;31.13;94871.56;4912150;29;19923;-81
2021/09/14 10:42:15;;;;;;;4.55;2.97;;;;;;;28.47;29.57;94863.19;4893905;29;20028;-81
2021/09/14 10:44:41;;;;;;;4.03;3.15;;;;;;;28.12;30.80;94872.38;4912583;29;20118;-81
2021/09/14 10:47:10;;;;;;;3.83;3.53;;;;;;;27.99;29.72;94866.88;4913158;29;20167;-80
2021/09/14 10:49:53;;;;;;;2.75;2.55;;;;;;;27.88;29.25;94860.03;4907958;29;20036;-82
2021/09/14 10:52:40;;;;;;;4.20;3.00;;;;;;;28.34;30.53;94858.53;4904757;29;20056;-84
2021/09/14 10:55:12;;;;;;;3.15;2.85;;;;;;;28.19;30.30;94853.38;4894967;29;20399;-83
2021/09/14 10:57:41;;;;;;;5.15;3.47;;;;;;;28.29;29.45;94860.47;4910228;29;20020;-82
2021/09/14 11:00:16;;;;;;;7.70;3.28;;;;;;;28.16;29.50;94838.72;4896613;29;20024;-82
2021/09/14 11:02:42;;;;;;;3.22;2.92;;;;;;;28.49;31.08;94855.69;4894649;29;20510;-82
2021/09/14 11:05:08;;;;;;;5.38;2.95;;;;;;;28.10;30.80;94857.72;4912392;29;20045;-83
2021/09/14 11:07:34;;;;;;;4.20;3.60;;;;;;;26.82;30.52;94850.16;4903705;29;20088;-83
2021/09/14 11:10:01;;;;;;;3.70;3.50;;;;;;;28.06;29.80;94846.84;4899573;29;20024;-85
2021/09/14 11:12:28;;;;;;;5.28;3.30;;;;;;;27.95;30.56;94844.53;4914456;29;20490;-82
2021/09/14 11:14:57;;;;;;;5.40;2.88;;;;;;;27.87;29.42;94851.25;4913653;29;20031;-85
2021/09/14 11:17:30;;;;;;;3.28;2.97;;;;;;;27.38;29.10;94842.63;4897222;29;20091;-83
2021/09/14 11:20:06;;;;;;;3.50;3.10;;;;;;;27.99;28.99;94840.22;4909876;29;20036;-83
2021/09/14 11:22:33;;;;;;;4.13;3.03;;;;;;;28.01;29.31;94832.75;4914207;29;20107;-81
2021/09/14 11:24:58;;;;;;;3.33;2.85;;;;;;;28.10;29.21;94836.41;4913471;29;20030;-82
2021/09/14 11:27:24;;;;;;;3.30;2.80;;;;;;;28.00;28.76;94836.50;4913564;29;20024;-83
2021/09/14 11:29:49;;;;;;;3.90;2.75;;;;;;;28.07;30.94;94828.97;4896835;29;20165;-82
2021/09/14 11:32:15;;;;;;;2.97;2.60;;;;;;;28.14;28.12;94835.56;4894592;29;20055;-82
2021/09/14 11:34:40;;;;;;;3.70;2.95;;;;;;;28.20;27.79;94830.97;4894864;29;20033;-82
2021/09/14 11:37:05;;;;;;;3.38;2.60;;;;;;;28.63;27.50;94824.59;4894253;29;20036;-82
2021/09/14 11:39:38;;;;;;;5.80;2.83;;;;;;;27.65;27.39;94835.75;4895300;29;20545;-85
2021/09/14 11:42:04;;;;;;;3.15;2.85;;;;;;;27.56;27.27;94828.66;4894337;29;20107;-81
2021/09/14 11:44:29;;;;;;;2.88;2.25;;;;;;;28.28;27.76;94822.38;4913164;29;20504;-82
2021/09/14 11:46:55;;;;;;;2.95;2.70;;;;;;;28.91;28.30;94828.25;4912989;29;20035;-81
2021/09/14 11:49:29;;;;;;;2.75;2.55;;;;;;;28.51;27.66;94821.53;4896187;29;20482;-81
2021/09/14 11:52:00;;;;;;;3.03;2.70;;;;;;;27.75;27.21;94821.56;4899359;29;20043;-79
2021/09/14 11:54:27;;;;;;;2.75;2.55;;;;;;;28.29;27.00;94817.84;4894043;29;20088;-83
2021/09/14 11:56:56;;;;;;;3.80;3.15;;;;;;;27.95;26.87;94820.56;4877483;29;20507;-80
2021/09/14 11:59:22;;;;;;;3.28;2.97;;;;;;;27.89;27.60;94814.50;4892584;29;20033;-77
2021/09/14 12:01:47;;;;;;;3.20;2.90;;;;;;;28.65;28.35;94813.63;4893673;29;20583;-83
2021/09/14 12:04:16;;;;;;;4.10;2.50;;;;;;;28.62;28.45;94815.00;4892712;29;20039;-80
2021/09/14 12:06:48;;;;;;;;;;;;;;;28.27;29.39;94810.91;4894489;29;20040;-80
2021/09/14 12:09:13;;;;;;;3.20;2.90;;;;;;;28.57;27.61;94806.28;4892567;29;19915;-81
2021/09/14 12:11:39;;;;;;;5.40;2.50;;;;;;;28.08;26.80;94806.59;4902825;29;20043;-80
2021/09/14 12:14:06;;;;;;;2.80;2.58;;;;;;;28.51;29.36;94805.53;4900524;29;20032;-83
2021/09/14 12:16:36;;;;;;;3.03;2.63;;;;;;;28.25;27.31;94806.94;4896204;29;20525;-80
2021/09/14 12:19:01;;;;;;;3.55;2.40;;;;;;;28.23;28.32;94796.56;4896492;29;20028;-81
2021/09/14 12:21:27;;;;;;;2.60;2.40;;;;;;;27.55;27.58;94801.22;4905869;29;20033;-84
2021/09/14 12:23:53;;;;;;;4.47;2.88;;;;;;;28.40;29.04;94800.63;4893814;29;20085;-80
2021/09/14 12:26:19;;;;;;;5.50;2.78;;;;;;;28.81;28.15;94795.56;4893530;29;20040;-79
2021/09/14 12:28:45;;;;;;;6.97;2.60;;;;;;;28.60;27.71;94793.16;4893740;29;20576;-80
2021/09/14 12:31:11;;;;;;;3.60;2.85;;;;;;;28.32;26.70;94785.28;4893722;29;20048;-80
2021/09/14 12:33:37;;;;;;;3.17;2.38;;;;;;;28.03;27.71;94785.31;4893291;29;20521;-80
2021/09/14 12:36:02;;;;;;;3.75;2.53;;;;;;;27.78;27.25;94786.38;4907393;29;20032;-79
2021/09/14 12:38:28;;;;;;;2.95;2.65;;;;;;;27.70;27.86;94779.00;4912418;29;20024;-83
2021/09/14 12:40:53;;;;;;;3.53;2.80;;;;;;;28.13;27.19;94777.22;4910566;29;20036;-81
2021/09/14 12:43:19;;;;;;;3.10;2.90;;;;;;;28.20;27.89;94775.81;4912066;29;20043;-81
2021/09/14 12:45:44;;;;;;;6.32;2.53;;;;;;;28.48;26.75;94768.00;4912204;29;20043;-80
2021/09/14 12:48:09;;;;;;;2.83;2.58;;;;;;;28.62;27.77;94767.00;4907495;29;20039;-81
2021/09/14 12:50:35;;;;;;;4.15;2.55;;;;;;;28.01;28.05;94771.47;4900832;29;20417;-83
2021/09/14 12:53:04;;;;;;;2.85;2.65;;;;;;;27.85;27.79;94764.72;4895702;29;20032;-83
2021/09/14 12:55:32;;;;;;;4.47;3.30;;;;;;;27.68;28.79;94773.94;4912137;29;20032;-84
2021/09/14 12:57:57;;;;;;;2.70;2.50;;;;;;;27.94;27.99;94768.34;4876439;29;20066;-85
2021/09/14 13:00:23;;;;;;;3.03;2.78;;;;;;;27.58;27.48;94762.63;4893544;29;20032;-83
2021/09/14 13:02:48;;;;;;;3.63;2.67;;;;;;;27.78;28.76;94770.38;4892917;29;20045;-82
2021/09/14 13:05:14;;;;;;;4.32;2.60;;;;;;;27.90;28.83;94764.69;4892994;29;20032;-82
2021/09/14 13:07:39;;;;;;;3.72;3.17;;;;;;;27.81;29.08;94763.69;4893151;29;20040;-83
2021/09/14 13:10:07;;;;;;;2.70;2.50;;;;;;;27.59;27.53;94761.53;4893687;29;20024;-83
2021/09/14 13:12:33;;;;;;;5.45;2.53;;;;;;;27.89;27.77;94752.44;4892916;29;20060;-81
2021/09/14 13:17:42;;;;;;;4.43;3.00;;;;;;;27.46;28.42;94757.66;4899392;29;20105;-81
2021/09/14 13:20:09;;;;;;;4.88;2.97;;;;;;;27.55;27.92;94755.97;4891477;29;20037;-85
2021/09/14 13:22:35;;;;;;;5.05;2.72;;;;;;;27.67;27.98;94752.94;4893518;29;20480;-81
2021/09/14 13:25:01;;;;;;;4.07;3.00;;;;;;;27.48;28.05;94744.91;4892659;29;20021;-82
2021/09/14 13:27:27;;;;;;;3.13;2.83;;;;;;;27.34;28.56;94751.09;4892806;29;20067;-81
2021/09/14 13:29:52;;;;;;;2.70;2.50;;;;;;;27.49;28.85;94743.78;4875972;29;20039;-82
2021/09/14 13:32:18;;;;;;;2.50;2.30;;;;;;;27.48;28.60;94739.56;4892337;29;20037;-84
2021/09/14 13:34:43;;;;;;;3.85;2.72;;;;;;;27.73;29.03;94739.31;4892574;29;20040;-80
2021/09/14 13:37:09;;;;;;;3.03;2.67;;;;;;;27.79;28.72;94733.91;4910862;29;20039;-80
2021/09/14 13:39:34;;;;;;;3.75;2.67;;;;;;;27.82;29.13;94733.34;4894165;29;20028;-80
2021/09/14 13:42:00;;;;;;;3.72;2.38;;;;;;;27.95;29.30;94725.47;4911037;29;20028;-81
2021/09/14 13:46:58;;;;;;;2.50;2.33;;;;;;;27.47;29.11;94737.97;4894612;29;20483;-80
2021/09/14 13:49:23;;;;;;;2.97;2.65;;;;;;;27.52;29.43;94719.28;4891911;29;20091;-82
2021/09/14 13:51:50;;;;;;;3.42;2.75;;;;;;;27.70;29.05;94726.56;4875375;29;20024;-83
2021/09/14 13:54:15;;;;;;;2.95;2.70;;;;;;;27.62;29.13;94719.19;4890944;29;20032;-79
2021/09/14 13:56:41;;;;;;;3.17;2.60;;;;;;;27.73;29.32;94728.66;4898179;29;20036;-79
2021/09/14 13:59:06;;;;;;;6.60;2.33;;;;;;;27.83;28.31;94725.09;4910964;29;20036;-79
2021/09/14 14:01:32;;;;;;;5.97;3.53;;;;;;;28.07;28.96;94727.75;4910707;29;20056;-79
2021/09/14 14:03:57;;;;;;;4.35;2.85;;;;;;;28.28;28.96;94723.75;4878113;29;20454;-79
2021/09/14 14:06:27;;;;;;;4.13;2.85;;;;;;;27.83;27.99;94725.09;4900304;29;20028;-79
2021/09/14 14:08:52;;;;;;;4.47;3.47;;;;;;;27.58;28.90;94726.13;4893903;29;20044;-84
2021/09/14 14:11:18;;;;;;;5.13;2.70;;;;;;;27.41;29.18;94728.44;4895203;29;20041;-81
2021/09/14 14:13:44;;;;;;;3.88;2.42;;;;;;;27.71;28.80;94722.00;4895679;29;20519;-81
2021/09/14 14:16:09;;;;;;;6.63;3.10;;;;;;;27.56;28.74;94730.97;4894417;29;20076;-81
2021/09/14 14:18:35;;;;;;;4.38;2.60;;;;;;;27.42;28.95;94722.00;4899590;29;20039;-81
2021/09/14 14:21:00;;;;;;;2.85;2.58;;;;;;;27.66;29.02;94725.53;4912111;29;20036;-79
2021/09/14 14:23:26;;;;;;;4.72;2.78;;;;;;;27.50;28.83;94718.78;4913838;29;20043;-81
2021/09/14 14:25:51;;;;;;;3.55;2.33;;;;;;;27.56;29.95;94722.97;4913763;29;20494;-81
2021/09/14 14:28:17;;;;;;;4.65;2.58;;;;;;;27.65;28.89;94723.13;4913434;29;20036;-81
2021/09/14 14:30:42;;;;;;;2.50;2.30;;;;;;;27.74;29.21;94727.56;4914862;29;20039;-81
2021/09/14 14:33:08;;;;;;;2.83;2.63;;;;;;;27.51;28.68;94722.22;4914233;29;20091;-82
2021/09/14 14:35:33;;;;;;;3.83;2.65;;;;;;;27.43;29.19;94730.78;4913285;29;20040;-80
2021/09/14 14:37:59;;;;;;;3.83;2.80;;;;;;;27.67;29.35;94721.81;4914300;29;20612;-80
2021/09/14 14:40:24;;;;;;;2.95;2.75;;;;;;;27.38;29.57;94718.34;4913583;29;20105;-80
2021/09/14 14:42:50;;;;;;;5.78;2.45;;;;;;;27.23;29.37;94721.91;4915129;29;20720;-82
2021/09/14 14:45:15;;;;;;;3.45;3.15;;;;;;;27.18;29.42;94723.84;4914740;29;20039;-82
2021/09/14 14:47:41;;;;;;;4.60;2.85;;;;;;;27.19;29.25;94718.25;4914236;29;20417;-81
2021/09/14 14:50:07;;;;;;;6.97;2.80;;;;;;;27.22;29.59;94722.22;4914632;29;20032;-80
2021/09/14 14:52:32;;;;;;;2.85;2.40;;;;;;;27.24;29.49;94720.06;4914224;29;20099;-80
2021/09/14 14:54:58;;;;;;;3.60;2.40;;;;;;;27.13;30.15;94724.66;4914372;29;20039;-81
2021/09/14 14:57:24;;;;;;;3.33;2.60;;;;;;;27.31;30.19;94725.84;4914310;29;20512;-81
2021/09/14 14:59:49;;;;;;;3.50;2.60;;;;;;;27.39;29.02;94727.88;4913932;29;20034;-80
2021/09/14 15:02:15;;;;;;;3.55;2.80;;;;;;;27.48;30.54;94738.78;4912361;29;20101;-79
2021/09/14 15:04:40;;;;;;;4.35;2.33;;;;;;;27.34;29.39;94738.59;4913318;29;20028;-80
2021/09/14 15:07:06;;;;;;;3.53;2.40;;;;;;;27.16;29.62;94739.31;4914352;29;20024;-81
2021/09/14 15:09:31;;;;;;;4.15;2.13;;;;;;;27.20;29.58;94735.78;4914365;29;20032;-81
2021/09/14 15:11:57;;;;;;;3.03;2.40;;;;;;;27.12;30.00;94733.75;4914463;29;20479;-81
2021/09/14 15:14:22;;;;;;;3.15;2.10;;;;;;;27.12;30.03;94740.91;4911988;29;20039;-80
2021/09/14 15:16:48;;;;;;;6.15;2.65;;;;;;;27.05;30.17;94743.91;4911326;29;20035;-79
2021/09/14 15:19:13;;;;;;;8.88;6.82;;;;;;;27.09;31.35;94739.63;4912133;29;20306;-79
2021/09/14 15:21:39;;;;;;;4.47;4.07;;;;;;;26.91;31.25;94739.47;4910510;29;20028;-80
2021/09/14 15:24:05;;;;;;;4.88;4.47;;;;;;;26.77;30.23;94738.50;4895681;29;20035;-79
2021/09/14 15:26:31;;;;;;;5.00;3.85;;;;;;;26.98;29.95;94742.63;4910560;29;20068;-77
2021/09/14 15:28:57;;;;;;;2.70;2.50;;;;;;;26.95;30.32;94748.50;4909514;29;20059;-79
2021/09/14 15:31:23;;;;;;;6.25;2.22;;;;;;;26.81;29.86;94755.53;4912460;29;20042;-79
2021/09/14 15:33:48;;;;;;;3.65;2.80;;;;;;;26.88;31.44;94750.66;4895225;29;20040;-79
2021/09/14 15:36:14;;;;;;;2.70;2.50;;;;;;;26.75;30.72;94746.75;4911667;29;20017;-79
2021/09/14 15:38:39;;;;;;;2.88;2.67;;;;;;;26.39;31.40;94748.84;4912746;29;20028;-79
2021/09/14 15:41:06;;;;;;;3.63;2.47;;;;;;;26.29;31.37;94748.09;4911379;29;20035;-79
2021/09/14 15:43:34;;;;;;;4.55;2.50;;;;;;;26.22;31.24;94753.69;4908950;29;20708;-80
2021/09/14 15:46:00;;;;;;;4.45;2.92;;;;;;;25.79;33.45;94755.16;4911918;29;20047;-80
2021/09/14 15:48:27;;;;;;;2.65;2.50;;;;;;;25.63;33.23;94758.91;4912495;29;20402;-81
2021/09/14 15:50:53;;;;;;;2.35;2.25;;;;;;;25.53;33.78;94766.88;4912239;29;20091;-81
2021/09/14 15:53:18;;;;;;;5.18;2.63;;;;;;;25.43;33.65;94756.28;4913006;29;20032;-80
2021/09/14 15:55:45;;;;;;;3.08;2.67;;;;;;;25.27;34.34;94765.31;4911250;29;20032;-80
2021/09/14 15:58:10;;;;;;;2.75;2.53;;;;;;;24.95;35.75;94765.56;4906321;29;20033;-80
2021/09/14 16:00:35;;;;;;;3.10;2.80;;;;;;;24.77;35.66;94766.06;4910081;29;20147;-80
2021/09/14 16:03:01;;;;;;;6.53;2.40;;;;;;;24.63;35.37;94769.22;4911328;29;20035;-81
2021/09/14 16:05:27;;;;;;;3.55;2.72;;;;;;;24.56;35.54;94762.59;4911862;29;20056;-80
2021/09/14 16:07:53;;;;;;;3.03;2.63;;;;;;;24.35;36.37;94759.09;4911505;29;20063;-80
2021/09/14 16:10:19;;;;;;;2.92;2.72;;;;;;;24.14;36.21;94755.56;4895285;29;20091;-80
2021/09/14 16:12:44;;;;;;;3.90;2.55;;;;;;;24.16;36.21;94760.63;4911488;29;20024;-80
2021/09/14 16:15:10;;;;;;;4.55;2.80;;;;;;;24.10;36.48;94767.72;4911688;29;20039;-80
2021/09/14 16:17:35;;;;;;;8.48;2.97;;;;;;;23.90;37.80;94769.47;4911292;29;20039;-80
2021/09/14 16:20:01;;;;;;;4.85;2.78;;;;;;;23.72;37.83;94767.28;4912195;29;20028;-79
2021/09/14 16:22:26;;;;;;;6.60;3.17;;;;;;;23.32;39.65;94771.22;4911917;29;20032;-80
2021/09/14 16:24:52;;;;;;;6.82;3.00;;;;;;;22.93;42.97;94777.78;4911082;29;20080;-80
2021/09/14 16:27:18;;;;;;;5.38;2.97;;;;;;;22.53;45.20;94776.34;4911979;29;20040;-79
2021/09/14 16:29:44;;;;;;;6.80;2.83;;;;;;;22.28;46.41;94778.72;4895035;29;20059;-79
2021/09/14 16:32:09;;;;;;;6.40;3.10;;;;;;;22.15;46.10;94781.72;4910798;29;20531;-79
2021/09/14 16:34:35;;;;;;;3.65;2.75;;;;;;;21.86;46.94;94781.09;4910870;29;20024;-80